Time;durP1;ratioP1;P1;durP2;ratioP2;P2;SDS_P1;SDS_P2;PMS_P1;PMS_P2;Temp;Humidity;BMP_temperature;BMP_pressure;BME280_temperature;BME280_humidity;BME280_pressure;Samples;Min_cycle;Max_cycle;Signal;HPM_P1;HPM_P2
2024/04/12 00:00:21;;;;;;;;;;;;;;;12.62;54.65;101506.84;4568766;25;19927;-73
2024/04/12 00:02:24;;;;;;;;;;;;;;;12.51;54.61;101499.66;4537482;26;19934;-72
2024/04/12 00:04:25;;;;;;;;;;;;;;;12.45;55.00;101497.47;4569400;26;19934;-73
2024/04/12 00:06:30;;;;;;;;;;;;;;;12.43;54.68;101499.41;4569906;26;19928;-72
2024/04/12 00:08:30;;;;;;;;;;;;;;;12.44;54.70;101498.44;4570204;26;19935;-71
2024/04/12 00:10:31;;;;;;;;;;;;;;;12.30;54.96;101494.16;4569158;25;19996;-73
2024/04/12 00:12:32;;;;;;;;;;;;;;;12.24;55.75;101497.31;4570214;26;19931;-73
2024/04/12 00:14:33;;;;;;;;;;;;;;;12.23;55.74;101501.84;4571082;26;19934;-72
2024/04/12 00:16:38;;;;;;;;;;;;;;;12.25;56.03;101504.38;4572052;26;19927;-71
2024/04/12 00:18:39;;;;;;;;;;;;;;;12.29;55.83;101500.50;4539361;26;19935;-72
2024/04/12 00:20:39;;;;;;;;;;;;;;;12.23;55.62;101504.53;4568794;25;20267;-73
2024/04/12 00:22:39;;;;;;;;;;;;;;;12.27;55.83;101492.59;4569613;26;19963;-72
2024/04/12 00:24:40;;;;;;;;;;;;;;;12.24;55.31;101492.81;4568876;26;20604;-71
2024/04/12 00:26:45;;;;;;;;;;;;;;;12.19;55.43;101495.00;4569861;26;20773;-73
2024/04/12 00:28:49;;;;;;;;;;;;;;;12.11;55.69;101498.28;4583067;26;19936;-72
2024/04/12 00:30:49;;;;;;;;;;;;;;;12.19;55.75;101495.00;4579177;25;19943;-72
2024/04/12 00:32:57;;;;;;;;;;;;;;;12.30;55.29;101489.66;4569027;26;20265;-72
2024/04/12 00:34:58;;;;;;;;;;;;;;;12.31;55.57;101494.03;4569132;26;19927;-72
2024/04/12 00:37:06;;;;;;;;;;;;;;;12.30;55.07;101494.16;4569264;26;20336;-72
2024/04/12 00:39:06;;;;;;;;;;;;;;;12.42;55.40;101495.03;4568987;25;19927;-72
2024/04/12 00:41:19;;;;;;;;;;;;;;;12.39;55.32;101490.75;4536151;26;19975;-72
2024/04/12 00:43:20;;;;;;;;;;;;;;;12.40;55.57;101494.28;4569338;26;19936;-72
2024/04/12 00:45:39;;;;;;;;;;;;;;;12.38;55.77;101493.53;4568814;26;19934;-72
2024/04/12 00:47:41;;;;;;;;;;;;;;;12.56;55.92;101497.47;4568974;26;20024;-72
2024/04/12 00:49:49;;;;;;;;;;;;;;;12.64;55.83;101484.31;4536456;26;19932;-71
2024/04/12 00:51:50;;;;;;;;;;;;;;;12.72;55.30;101489.03;4568717;26;19927;-72
2024/04/12 00:53:56;;;;;;;;;;;;;;;12.73;55.70;101487.22;4569415;26;19933;-73
2024/04/12 00:56:03;;;;;;;;;;;;;;;12.76;56.34;101485.13;4568716;26;20594;-72
2024/04/12 00:58:03;;;;;;;;;;;;;;;12.77;56.22;101494.03;4536923;26;20535;-72
2024/04/12 01:00:10;;;;;;;;;;;;;;;12.76;56.48;101489.63;4569624;25;19928;-72
2024/04/12 01:02:10;;;;;;;;;;;;;;;12.79;56.29;101498.31;4569429;26;19928;-72
2024/04/12 01:04:12;;;;;;;;;;;;;;;12.73;56.01;101489.91;4569334;26;19934;-72
2024/04/12 01:06:15;;;;;;;;;;;;;;;12.75;56.04;101496.00;4536981;26;19932;-72
2024/04/12 01:08:16;;;;;;;;;;;;;;;12.72;55.98;101494.41;4537972;26;19928;-73
2024/04/12 01:10:21;;;;;;;;;;;;;;;12.63;56.36;101498.69;4568448;25;19986;-73
2024/04/12 01:12:21;;;;;;;;;;;;;;;12.56;56.13;101502.84;4541996;26;19932;-72
2024/04/12 01:14:25;;;;;;;;;;;;;;;12.58;56.32;101503.56;4575462;26;19935;-73
2024/04/12 01:16:25;;;;;;;;;;;;;;;12.60;56.09;101498.09;4577008;26;19928;-74
2024/04/12 01:18:28;;;;;;;;;;;;;;;12.63;56.02;101490.63;4576659;26;19976;-73
2024/04/12 01:20:32;;;;;;;;;;;;;;;12.62;56.36;101491.63;4576168;25;19967;-72
2024/04/12 01:22:35;;;;;;;;;;;;;;;12.60;56.56;101490.88;4577060;26;19934;-73
2024/04/12 01:24:37;;;;;;;;;;;;;;;12.57;56.69;101474.19;4571141;26;20010;-73
2024/04/12 01:26:39;;;;;;;;;;;;;;;12.65;56.37;101477.09;4572023;26;19928;-72
2024/04/12 01:28:42;;;;;;;;;;;;;;;12.45;56.63;101484.06;4572427;26;19943;-72
2024/04/12 01:30:46;;;;;;;;;;;;;;;12.44;56.99;101482.34;4571453;25;19996;-73
2024/04/12 01:32:50;;;;;;;;;;;;;;;12.32;56.99;101478.81;4572431;26;20457;-71
2024/04/12 01:34:50;;;;;;;;;;;;;;;12.31;57.08;101488.69;4572135;26;20252;-72
2024/04/12 01:36:51;;;;;;;;;;;;;;;12.23;57.52;101474.19;4549442;26;19928;-72
2024/04/12 01:38:57;;;;;;;;;;;;;;;12.20;57.86;101485.97;4570286;25;19928;-72
2024/04/12 01:40:57;;;;;;;;;;;;;;;12.04;58.26;101488.16;4564330;25;19995;-72
2024/04/12 01:43:00;;;;;;;;;;;;;;;12.10;58.26;101482.31;4555129;26;20415;-71
2024/04/12 01:45:16;;;;;;;;;;;;;;;12.29;57.53;101476.38;4542475;26;19932;-72
2024/04/12 01:47:16;;;;;;;;;;;;;;;12.08;57.57;101471.72;4542826;26;19939;-72
2024/04/12 01:49:16;;;;;;;;;;;;;;;11.81;58.73;101482.72;4542648;26;19973;-72
2024/04/12 01:51:17;;;;;;;;;;;;;;;11.62;59.22;101475.25;4542596;26;19935;-73
2024/04/12 01:53:21;;;;;;;;;;;;;;;11.64;59.01;101474.16;4542653;26;19931;-72
2024/04/12 01:55:22;;;;;;;;;;;;;;;11.71;58.20;101486.09;4542587;26;19939;-73
2024/04/12 01:57:28;;;;;;;;;;;;;;;11.69;58.33;101480.03;4551186;26;20260;-72
2024/04/12 01:59:31;;;;;;;;;;;;;;;11.76;57.97;101490.25;4554174;26;19928;-74
2024/04/12 02:01:33;;;;;;;;;;;;;;;11.68;58.53;101485.47;4581066;26;19971;-73
2024/04/12 02:03:34;;;;;;;;;;;;;;;11.63;58.71;101488.50;4572929;26;19927;-73
2024/04/12 02:05:34;;;;;;;;;;;;;;;11.70;58.80;101481.72;4571997;26;19928;-73
2024/04/12 02:07:39;;;;;;;;;;;;;;;11.82;58.39;101479.06;4572901;26;20439;-73
2024/04/12 02:09:40;;;;;;;;;;;;;;;11.79;58.21;101482.00;4561510;26;20344;-73
2024/04/12 02:11:45;;;;;;;;;;;;;;;11.78;58.42;101481.13;4571608;26;19934;-72
2024/04/12 02:13:45;;;;;;;;;;;;;;;11.71;58.39;101485.25;4568783;26;19939;-72
2024/04/12 02:15:46;;;;;;;;;;;;;;;11.74;58.78;101487.72;4571689;26;19938;-72
2024/04/12 02:18:02;;;;;;;;;;;;;;;11.76;58.87;101483.06;4569268;26;19927;-72
2024/04/12 02:20:09;;;;;;;;;;;;;;;11.89;58.62;101483.00;4569684;26;19936;-73
2024/04/12 02:22:10;;;;;;;;;;;;;;;12.01;58.06;101491.94;4570613;26;19934;-72
2024/04/12 02:24:11;;;;;;;;;;;;;;;11.94;57.76;101494.19;4569525;26;20702;-73
2024/04/12 02:26:11;;;;;;;;;;;;;;;11.83;58.27;101495.03;4538213;26;20365;-72
2024/04/12 02:28:13;;;;;;;;;;;;;;;11.93;58.03;101505.06;4569920;26;19934;-73
2024/04/12 02:30:13;;;;;;;;;;;;;;;11.91;58.42;101504.31;4569304;26;19992;-71
2024/04/12 02:32:14;;;;;;;;;;;;;;;11.99;58.15;101505.47;4538267;26;19936;-72
2024/04/12 02:34:14;;;;;;;;;;;;;;;12.01;57.85;101510.69;4552528;26;19939;-73
2024/04/12 02:36:16;;;;;;;;;;;;;;;11.96;57.98;101504.78;4552777;26;19932;-75
2024/04/12 02:38:20;;;;;;;;;;;;;;;11.95;58.76;101497.75;4557711;26;19928;-74
2024/04/12 02:40:21;;;;;;;;;;;;;;;11.93;58.40;101503.22;4557153;26;19928;-73
2024/04/12 02:42:22;;;;;;;;;;;;;;;11.74;59.06;101497.56;4557440;26;19927;-78
2024/04/12 02:44:24;;;;;;;;;;;;;;;11.93;58.41;101502.38;4557825;26;19936;-73
2024/04/12 02:46:26;;;;;;;;;;;;;;;11.82;58.55;101503.16;4556568;26;19928;-73
2024/04/12 02:48:30;;;;;;;;;;;;;;;11.78;58.23;101504.41;4548327;26;19935;-73
2024/04/12 02:50:30;;;;;;;;;;;;;;;11.52;58.60;101493.84;4548281;26;19935;-73
2024/04/12 02:52:33;;;;;;;;;;;;;;;11.33;59.64;101505.94;4544828;26;19936;-72
2024/04/12 02:54:35;;;;;;;;;;;;;;;11.24;59.44;101509.28;4540245;26;20026;-72
2024/04/12 02:56:35;;;;;;;;;;;;;;;11.22;59.63;101500.50;4539537;26;19928;-74
2024/04/12 02:58:45;;;;;;;;;;;;;;;11.27;59.75;101510.88;4538336;26;20602;-72
2024/04/12 03:00:45;;;;;;;;;;;;;;;11.18;59.77;101512.41;4538768;26;19932;-72
2024/04/12 03:02:46;;;;;;;;;;;;;;;11.20;59.02;101510.47;4539466;26;19935;-72
2024/04/12 03:04:47;;;;;;;;;;;;;;;11.11;59.44;101512.00;4539179;26;19936;-73
2024/04/12 03:06:48;;;;;;;;;;;;;;;11.11;59.04;101514.66;4507116;26;19935;-72
2024/04/12 03:08:49;;;;;;;;;;;;;;;11.12;59.43;101515.53;4538568;26;20499;-71
2024/04/12 03:10:49;;;;;;;;;;;;;;;11.11;59.47;101525.38;4540301;26;19940;-74
2024/04/12 03:12:52;;;;;;;;;;;;;;;11.13;59.89;101519.94;4540663;26;19928;-71
2024/04/12 03:14:54;;;;;;;;;;;;;;;11.08;59.93;101514.91;4542051;26;19976;-71
2024/04/12 03:16:54;;;;;;;;;;;;;;;11.04;60.27;101513.41;4539101;26;19940;-72
2024/04/12 03:18:55;;;;;;;;;;;;;;;11.06;60.31;101506.97;4539971;26;19934;-72
2024/04/12 03:20:55;;;;;;;;;;;;;;;11.00;60.14;101520.81;4506508;26;20015;-73
2024/04/12 03:22:55;;;;;;;;;;;;;;;10.97;60.39;101521.03;4539154;26;19927;-72
2024/04/12 03:24:56;;;;;;;;;;;;;;;10.99;60.22;101518.25;4539843;26;19928;-72
2024/04/12 03:26:56;;;;;;;;;;;;;;;10.95;60.21;101522.09;4541711;26;19940;-72
2024/04/12 03:28:59;;;;;;;;;;;;;;;10.89;60.73;101516.25;4542319;26;19928;-72
2024/04/12 03:31:04;;;;;;;;;;;;;;;10.75;61.10;101524.41;4546538;26;19960;-72
2024/04/12 03:33:07;;;;;;;;;;;;;;;10.73;61.38;101520.97;4551125;26;20321;-73
2024/04/12 03:35:08;;;;;;;;;;;;;;;10.72;61.30;101525.47;4542583;26;19928;-72
2024/04/12 03:37:36;;;;;;;;;;;;;;;10.68;61.21;101525.81;4538950;26;19940;-72
2024/04/12 03:39:38;;;;;;;;;;;;;;;10.75;61.41;101525.28;4538655;26;19928;-72
2024/04/12 03:41:39;;;;;;;;;;;;;;;10.77;61.44;101527.81;4537935;26;19932;-72
2024/04/12 03:43:43;;;;;;;;;;;;;;;10.80;61.16;101526.75;4539029;26;20203;-72
2024/04/12 03:45:44;;;;;;;;;;;;;;;10.79;61.38;101525.03;4538368;26;20762;-73
2024/04/12 03:47:50;;;;;;;;;;;;;;;10.80;61.12;101524.06;4536958;26;19932;-73
2024/04/12 03:49:52;;;;;;;;;;;;;;;10.77;61.81;101527.81;4538263;26;19928;-73
2024/04/12 03:51:54;;;;;;;;;;;;;;;10.71;62.22;101522.94;4537766;26;19935;-72
2024/04/12 03:54:10;;;;;;;;;;;;;;;10.72;61.97;101524.63;4538656;26;19935;-72
2024/04/12 03:56:12;;;;;;;;;;;;;;;10.66;62.12;101525.06;4538267;26;19940;-73
2024/04/12 03:58:18;;;;;;;;;;;;;;;10.51;63.01;101529.66;4537649;26;19939;-72
2024/04/12 04:00:20;;;;;;;;;;;;;;;10.45;63.09;101526.47;4537240;26;19928;-71
2024/04/12 04:02:22;;;;;;;;;;;;;;;10.44;62.84;101530.13;4538433;26;19996;-73
2024/04/12 04:04:28;;;;;;;;;;;;;;;10.40;62.49;101520.59;4538296;26;19928;-72
2024/04/12 04:06:35;;;;;;;;;;;;;;;10.43;62.57;101519.53;4506334;26;19936;-74
2024/04/12 04:08:57;;;;;;;;;;;;;;;10.37;62.70;101520.81;4506369;26;19968;-71
2024/04/12 04:11:02;;;;;;;;;;;;;;;10.27;62.69;101515.22;4536233;26;20403;-72
2024/04/12 04:13:03;;;;;;;;;;;;;;;10.25;62.68;101513.63;4538156;26;20249;-73
2024/04/12 04:15:06;;;;;;;;;;;;;;;10.16;62.61;101523.09;4538230;26;19928;-72
2024/04/12 04:17:10;;;;;;;;;;;;;;;10.08;62.84;101510.31;4538211;26;19935;-73
2024/04/12 04:19:12;;;;;;;;;;;;;;;10.08;62.80;101515.66;4537515;26;19928;-72
2024/04/12 04:21:12;;;;;;;;;;;;;;;10.08;62.18;101523.66;4537148;26;20260;-72
2024/04/12 04:23:17;;;;;;;;;;;;;;;10.06;62.00;101517.56;4537828;26;19928;-72
2024/04/12 04:25:19;;;;;;;;;;;;;;;10.08;61.86;101504.09;4537497;26;19927;-71
2024/04/12 04:27:21;;;;;;;;;;;;;;;10.07;61.42;101507.72;4538141;26;19984;-72
2024/04/12 04:29:21;;;;;;;;;;;;;;;10.07;61.41;101510.38;4506167;26;20466;-72
2024/04/12 04:31:22;;;;;;;;;;;;;;;10.17;61.21;101513.28;4537071;26;19975;-71
2024/04/12 04:33:22;;;;;;;;;;;;;;;10.18;61.34;101515.00;4539440;26;19939;-72
2024/04/12 04:35:27;;;;;;;;;;;;;;;10.13;61.56;101508.16;4541481;26;19939;-71
2024/04/12 04:37:27;;;;;;;;;;;;;;;10.10;61.81;101507.50;4538172;26;19927;-72
2024/04/12 04:39:29;;;;;;;;;;;;;;;10.15;61.47;101506.22;4537732;26;19928;-73
2024/04/12 04:41:30;;;;;;;;;;;;;;;10.19;62.03;101506.03;4535798;26;19999;-73
2024/04/12 04:43:31;;;;;;;;;;;;;;;10.25;61.88;101511.78;4507514;26;19964;-72
2024/04/12 04:45:32;;;;;;;;;;;;;;;10.12;62.52;101509.09;4537788;26;19936;-73
2024/04/12 04:47:34;;;;;;;;;;;;;;;10.18;62.40;101515.00;4538428;26;19928;-72
2024/04/12 04:49:34;;;;;;;;;;;;;;;10.24;62.48;101507.44;4537794;26;19995;-74
2024/04/12 04:51:35;;;;;;;;;;;;;;;10.29;62.13;101513.28;4537114;26;19936;-73
2024/04/12 04:53:36;;;;;;;;;;;;;;;10.25;62.51;101516.28;4536251;26;19928;-73
2024/04/12 04:55:36;;;;;;;;;;;;;;;10.28;62.09;101508.91;4537604;26;19931;-73
2024/04/12 04:57:39;;;;;;;;;;;;;;;10.48;61.82;101516.53;4536804;26;19928;-73
2024/04/12 04:59:44;;;;;;;;;;;;;;;10.59;61.45;101519.28;4511598;26;19928;-74
2024/04/12 05:01:48;;;;;;;;;;;;;;;10.72;60.85;101509.44;4556155;26;19928;-73
2024/04/12 05:03:49;;;;;;;;;;;;;;;10.77;60.87;101509.09;4547686;26;19934;-72
2024/04/12 05:05:49;;;;;;;;;;;;;;;10.90;60.35;101511.75;4508858;26;19929;-73
2024/04/12 05:07:55;;;;;;;;;;;;;;;10.80;60.60;101513.38;4540477;26;19939;-71
2024/04/12 05:09:55;;;;;;;;;;;;;;;10.74;60.41;101501.28;4538419;26;19932;-73
2024/04/12 05:11:55;;;;;;;;;;;;;;;10.53;61.11;101509.03;4508543;26;20257;-74
2024/04/12 05:14:06;;;;;;;;;;;;;;;10.50;61.48;101509.25;4540826;26;19932;-72
2024/04/12 05:16:15;;;;;;;;;;;;;;;10.47;61.22;101521.00;4540373;26;19928;-75
2024/04/12 05:18:16;;;;;;;;;;;;;;;10.51;61.20;101524.31;4540798;26;19928;-72
2024/04/12 05:20:20;;;;;;;;;;;;;;;10.52;61.35;101520.69;4539725;26;19943;-73
2024/04/12 05:22:20;;;;;;;;;;;;;;;10.51;60.83;101521.66;4540628;26;19935;-72
2024/04/12 05:24:24;;;;;;;;;;;;;;;10.50;61.15;101517.25;4539666;26;19928;-74
2024/04/12 05:26:25;;;;;;;;;;;;;;;10.39;61.80;101512.69;4508572;26;19928;-73
2024/04/12 05:28:27;;;;;;;;;;;;;;;10.59;60.75;101513.94;4540483;26;19928;-73
2024/04/12 05:30:27;;;;;;;;;;;;;;;10.83;60.03;101510.47;4539826;26;19928;-73
2024/04/12 05:32:32;;;;;;;;;;;;;;;10.67;59.92;101524.09;4540357;26;19928;-74
2024/04/12 05:34:34;;;;;;;;;;;;;;;10.68;59.97;101515.13;4540457;26;19993;-72
2024/04/12 05:36:36;;;;;;;;;;;;;;;10.66;59.79;101512.56;4540597;26;19928;-72
2024/04/12 05:38:37;;;;;;;;;;;;;;;10.69;60.12;101514.16;4509087;26;19936;-72
2024/04/12 05:40:51;;;;;;;;;;;;;;;10.68;59.93;101515.13;4511585;26;19928;-73
2024/04/12 05:42:53;;;;;;;;;;;;;;;10.78;59.97;101508.13;4548227;26;19928;-74
2024/04/12 05:44:53;;;;;;;;;;;;;;;10.81;60.00;101507.06;4549392;26;19928;-74
2024/04/12 05:46:53;;;;;;;;;;;;;;;10.80;60.20;101516.03;4545996;26;19935;-72
2024/04/12 05:48:54;;;;;;;;;;;;;;;10.93;59.94;101523.06;4547412;26;20400;-73
2024/04/12 05:50:55;;;;;;;;;;;;;;;11.04;59.35;101526.78;4516001;26;20008;-73
2024/04/12 05:52:56;;;;;;;;;;;;;;;11.07;59.66;101530.09;4542778;26;19935;-73
2024/04/12 05:54:58;;;;;;;;;;;;;;;11.11;58.77;101532.56;4541062;26;19928;-72
2024/04/12 05:56:59;;;;;;;;;;;;;;;11.05;58.94;101536.53;4539645;26;19956;-72
2024/04/12 05:59:01;;;;;;;;;;;;;;;11.27;59.38;101543.84;4539600;26;20353;-71
2024/04/12 06:01:01;;;;;;;;;;;;;;;11.46;58.91;101529.09;4537614;26;20000;-72
2024/04/12 06:03:01;;;;;;;;;;;;;;;11.45;58.00;101524.69;4539468;26;20361;-72
2024/04/12 06:05:04;;;;;;;;;;;;;;;11.61;58.10;101522.59;4540185;26;20353;-72
2024/04/12 06:07:11;;;;;;;;;;;;;;;11.53;57.95;101527.66;4539642;26;19957;-72
2024/04/12 06:09:20;;;;;;;;;;;;;;;11.51;58.05;101537.66;4539369;26;19936;-72
2024/04/12 06:11:21;;;;;;;;;;;;;;;11.46;58.15;101540.69;4537865;26;19928;-73
2024/04/12 06:13:24;;;;;;;;;;;;;;;11.75;57.35;101542.13;4539383;26;20564;-72
2024/04/12 06:15:28;;;;;;;;;;;;;;;11.74;57.51;101537.72;4537560;26;20454;-73
2024/04/12 06:17:28;;;;;;;;;;;;;;;11.69;57.32;101541.63;4539715;26;19928;-71
2024/04/12 06:19:36;;;;;;;;;;;;;;;11.82;56.93;101546.03;4540001;26;19928;-72
2024/04/12 06:21:37;;;;;;;;;;;;;;;11.88;57.08;101560.81;4539385;26;19932;-72
2024/04/12 06:23:40;;;;;;;;;;;;;;;12.00;56.95;101550.03;4540094;26;19997;-71
2024/04/12 06:25:44;;;;;;;;;;;;;;;12.04;56.77;101556.03;4539381;26;19928;-73
2024/04/12 06:27:45;;;;;;;;;;;;;;;11.96;56.91;101559.25;4549957;26;19920;-72
2024/04/12 06:29:46;;;;;;;;;;;;;;;12.12;56.58;101555.44;4540252;26;19934;-73
2024/04/12 06:31:46;;;;;;;;;;;;;;;11.97;57.02;101555.66;4548676;26;19928;-72
2024/04/12 06:33:49;;;;;;;;;;;;;;;12.15;56.68;101547.16;4550772;26;19955;-73
2024/04/12 06:35:49;;;;;;;;;;;;;;;11.74;57.46;101551.13;4540205;26;20599;-74
2024/04/12 06:37:51;;;;;;;;;;;;;;;11.74;57.15;101545.78;4539227;26;19961;-72
2024/04/12 06:39:55;;;;;;;;;;;;;;;11.80;57.66;101548.00;4539140;26;19974;-71
2024/04/12 06:41:57;;;;;;;;;;;;;;;11.85;56.97;101549.34;4539269;26;19928;-73
2024/04/12 06:43:57;;;;;;;;;;;;;;;11.87;56.72;101549.25;4543822;26;20004;-73
2024/04/12 06:46:07;;;;;;;;;;;;;;;11.95;56.71;101551.34;4543179;26;19936;-72
2024/04/12 06:48:10;;;;;;;;;;;;;;;12.07;56.88;101550.41;4545983;26;19947;-72
2024/04/12 06:50:10;;;;;;;;;;;;;;;12.00;56.62;101555.38;4550672;26;19935;-73
2024/04/12 06:52:11;;;;;;;;;;;;;;;11.87;56.95;101549.25;4550862;26;19928;-72
2024/04/12 06:54:12;;;;;;;;;;;;;;;11.81;57.45;101544.31;4547274;26;20373;-72
2024/04/12 06:56:16;;;;;;;;;;;;;;;11.92;56.54;101539.00;4519223;26;20035;-72
2024/04/12 06:58:21;;;;;;;;;;;;;;;12.26;56.02;101535.59;4556930;26;19939;-73
2024/04/12 07:00:29;;;;;;;;;;;;;;;12.32;55.78;101537.81;4518511;26;20377;-72
2024/04/12 07:02:30;;;;;;;;;;;;;;;12.67;55.13;101535.97;4541817;26;19928;-71
2024/04/12 07:04:31;;;;;;;;;;;;;;;12.57;55.11;101539.41;4544355;26;19928;-71
2024/04/12 07:06:32;;;;;;;;;;;;;;;12.58;54.87;101537.59;4540096;26;19928;-71
2024/04/12 07:08:33;;;;;;;;;;;;;;;12.67;54.90;101533.28;4538929;26;19928;-72
2024/04/12 07:10:35;;;;;;;;;;;;;;;12.59;54.97;101539.28;4506521;26;20486;-71
2024/04/12 07:12:37;;;;;;;;;;;;;;;12.84;54.27;101542.69;4538773;26;19932;-71
2024/04/12 07:14:41;;;;;;;;;;;;;;;13.06;53.92;101542.69;4507412;26;19932;-70
2024/04/12 07:16:42;;;;;;;;;;;;;;;12.90;53.39;101547.56;4507023;26;19932;-72
2024/04/12 07:18:42;;;;;;;;;;;;;;;12.95;53.58;101551.59;4538883;26;19928;-71
2024/04/12 07:20:46;;;;;;;;;;;;;;;13.12;52.97;101554.75;4538038;26;19928;-71
2024/04/12 07:22:46;;;;;;;;;;;;;;;13.18;52.88;101551.56;4538962;26;20378;-72
2024/04/12 07:24:47;;;;;;;;;;;;;;;13.20;53.37;101551.44;4538797;26;19981;-71
2024/04/12 07:26:47;;;;;;;;;;;;;;;13.56;51.87;101542.22;4539384;26;19927;-71
2024/04/12 07:28:48;;;;;;;;;;;;;;;13.81;51.71;101545.50;4548187;26;19932;-72
2024/04/12 07:30:49;;;;;;;;;;;;;;;13.96;51.08;101546.06;4547176;26;19947;-72
2024/04/12 07:32:50;;;;;;;;;;;;;;;14.14;50.66;101546.31;4546699;26;19936;-71
2024/04/12 07:34:52;;;;;;;;;;;;;;;14.29;50.41;101546.84;4540646;26;19936;-73
2024/04/12 07:36:52;;;;;;;;;;;;;;;14.42;50.43;101545.75;4537697;26;19928;-72
2024/04/12 07:38:55;;;;;;;;;;;;;;;14.72;49.70;101542.28;4538878;26;19939;-73
2024/04/12 07:40:55;;;;;;;;;;;;;;;14.71;49.74;101529.81;4537482;26;19938;-72
2024/04/12 07:42:57;;;;;;;;;;;;;;;14.49;50.17;101536.19;4536834;26;19975;-71
2024/04/12 07:44:59;;;;;;;;;;;;;;;14.90;49.07;101526.31;4538628;26;19968;-71
2024/04/12 07:46:59;;;;;;;;;;;;;;;15.28;48.31;101526.53;4536627;26;19940;-73
2024/04/12 07:49:02;;;;;;;;;;;;;;;15.53;48.16;101524.28;4506571;26;19929;-72
2024/04/12 07:51:04;;;;;;;;;;;;;;;15.50;48.34;101519.16;4537366;26;20284;-73
2024/04/12 07:55:23;;;;;;;;;;;;;;;15.53;48.24;101518.91;4538427;26;19936;-71
2024/04/12 07:57:25;;;;;;;;;;;;;;;15.63;47.86;101508.97;4538550;26;20618;-71
2024/04/12 07:59:25;;;;;;;;;;;;;;;16.25;46.85;101513.16;4539878;26;19944;-70
2024/04/12 08:01:31;;;;;;;;;;;;;;;16.88;45.55;101496.28;4550572;26;20161;-75
2024/04/12 08:03:36;;;;;;;;;;;;;;;16.99;45.28;101503.34;4541431;26;19936;-70
2024/04/12 08:05:49;;;;;;;;;;;;;;;16.94;45.38;101503.78;4538773;26;19934;-70
2024/04/12 08:07:49;;;;;;;;;;;;;;;17.13;45.25;101494.75;4540319;26;19928;-72
2024/04/12 08:10:09;;;;;;;;;;;;;;;16.67;46.30;101497.38;4537533;26;19934;-70
2024/04/12 08:12:23;;;;;;;;;;;;;;;16.73;45.98;101493.22;4537853;26;19936;-70
2024/04/12 08:14:26;;;;;;;;;;;;;;;17.29;45.18;101495.91;4538962;26;19934;-71
2024/04/12 08:16:26;;;;;;;;;;;;;;;17.88;44.11;101495.41;4537931;26;19935;-72
2024/04/12 08:18:28;;;;;;;;;;;;;;;17.46;44.86;101494.22;4537945;26;19928;-72
2024/04/12 08:20:28;;;;;;;;;;;;;;;17.77;44.55;101489.22;4537426;26;20252;-72
2024/04/12 08:22:33;;;;;;;;;;;;;;;17.88;44.23;101489.97;4537989;26;19961;-71
2024/04/12 08:24:34;;;;;;;;;;;;;;;18.16;43.71;101501.53;4537749;26;19928;-72
2024/04/12 08:26:34;;;;;;;;;;;;;;;18.61;42.77;101494.16;4537607;26;19964;-71
2024/04/12 08:28:36;;;;;;;;;;;;;;;18.75;42.50;101498.09;4538188;26;19928;-71
2024/04/12 08:30:51;;;;;;;;;;;;;;;19.07;41.31;101492.97;4505032;26;19929;-72
2024/04/12 08:32:51;;;;;;;;;;;;;;;19.02;41.18;101494.34;4536794;26;20009;-70
2024/04/12 08:34:55;;;;;;;;;;;;;;;18.68;42.17;101491.66;4536186;26;19964;-71
2024/04/12 08:36:56;;;;;;;;;;;;;;;18.91;41.70;101499.16;4537923;26;19928;-71
2024/04/12 08:39:07;;;;;;;;;;;;;;;19.21;40.74;101486.06;4537706;26;19935;-72
2024/04/12 08:41:13;;;;;;;;;;;;;;;19.21;40.90;101496.91;4536720;26;19928;-71
2024/04/12 08:43:15;;;;;;;;;;;;;;;19.33;40.56;101499.13;4537789;26;19928;-71
2024/04/12 08:45:18;;;;;;;;;;;;;;;20.04;38.86;101486.94;4537528;26;19996;-70
2024/04/12 08:47:30;;;;;;;;;;;;;;;19.46;39.17;101487.78;4537902;26;19928;-71
2024/04/12 08:49:32;;;;;;;;;;;;;;;20.03;37.84;101486.06;4537731;26;19940;-71
2024/04/12 08:51:34;;;;;;;;;;;;;;;19.56;38.81;101490.34;4537003;26;19935;-71
2024/04/12 08:53:36;;;;;;;;;;;;;;;20.24;37.47;101479.25;4537360;26;19928;-73
2024/04/12 08:55:42;;;;;;;;;;;;;;;20.27;37.32;101493.31;4535293;26;19957;-71
2024/04/12 08:57:43;;;;;;;;;;;;;;;20.54;36.42;101474.94;4537254;26;19928;-71
2024/04/12 08:59:46;;;;;;;;;;;;;;;20.54;36.58;101482.22;4505050;26;19937;-71
2024/04/12 09:01:49;;;;;;;;;;;;;;;20.75;35.98;101478.09;4504730;26;19929;-71
2024/04/12 09:03:53;;;;;;;;;;;;;;;20.97;35.47;101471.84;4536074;26;19928;-71
2024/04/12 09:05:55;;;;;;;;;;;;;;;21.27;34.95;101482.84;4536966;26;19928;-71
2024/04/12 09:07:58;;;;;;;;;;;;;;;20.59;36.22;101490.69;4536599;26;19993;-71
2024/04/12 09:09:59;;;;;;;;;;;;;;;21.09;35.56;101482.31;4536216;26;20435;-71
2024/04/12 09:12:01;;;;;;;;;;;;;;;21.08;35.43;101477.88;4536566;26;19952;-72
2024/04/12 09:14:09;;;;;;;;;;;;;;;21.34;35.02;101470.25;4535587;26;19979;-71
2024/04/12 09:16:10;;;;;;;;;;;;;;;21.15;34.76;101476.16;4540773;26;19939;-72
2024/04/12 09:18:19;;;;;;;;;;;;;;;21.10;34.53;101476.69;4537467;26;19928;-71
2024/04/12 09:20:29;;;;;;;;;;;;;;;20.76;34.82;101485.22;4536469;26;19928;-71
2024/04/12 09:22:31;;;;;;;;;;;;;;;20.92;34.54;101487.00;4546793;26;20665;-71
2024/04/12 09:24:31;;;;;;;;;;;;;;;20.62;35.11;101482.19;4537070;26;19935;-71
2024/04/12 09:26:40;;;;;;;;;;;;;;;21.56;33.67;101483.16;4536850;26;19928;-71
2024/04/12 09:28:40;;;;;;;;;;;;;;;22.17;32.43;101477.69;4542270;26;19928;-71
2024/04/12 09:33:16;;;;;;;;;;;;;;;21.69;33.30;101491.56;4537061;26;20310;-71
2024/04/12 09:35:18;;;;;;;;;;;;;;;21.02;33.80;101490.31;4536202;26;19960;-72
2024/04/12 09:37:29;;;;;;;;;;;;;;;21.08;33.53;101480.59;4536354;26;19934;-71
2024/04/12 09:40:04;;;;;;;;;;;;;;;22.13;32.55;101487.25;4535860;26;19956;-72
2024/04/12 09:42:03;;;;;;;;;;;;;;;22.14;32.54;101478.03;4536704;26;19928;-72
2024/04/12 09:44:04;;;;;;;;;;;;;;;22.63;31.38;101471.19;4538188;26;19996;-71
2024/04/12 09:46:17;;;;;;;;;;;;;;;22.98;30.95;101471.41;4539200;26;19936;-71
2024/04/12 10:37:39;;;;;;;;;;;;;;;24.61;27.46;101417.84;4538256;26;19938;-70
2024/04/12 10:39:49;;;;;;;;;;;;;;;24.30;27.46;101422.75;4537939;26;19928;-71
2024/04/12 10:41:50;;;;;;;;;;;;;;;23.37;28.20;101431.13;4537491;26;19952;-70
2024/04/12 10:43:51;;;;;;;;;;;;;;;23.30;28.26;101432.94;4538527;26;19957;-71
2024/04/12 10:45:52;;;;;;;;;;;;;;;23.68;27.82;101422.56;4538242;26;19960;-70
2024/04/12 10:47:56;;;;;;;;;;;;;;;23.63;28.05;101416.84;4538326;26;20327;-71
2024/04/12 10:49:56;;;;;;;;;;;;;;;24.09;27.22;101407.28;4538292;26;19928;-70
2024/04/12 10:51:57;;;;;;;;;;;;;;;24.06;27.03;101413.19;4537776;26;19928;-70
2024/04/12 10:53:58;;;;;;;;;;;;;;;23.02;27.82;101409.16;4538293;26;20420;-70
2024/04/12 10:56:02;;;;;;;;;;;;;;;23.66;27.50;101399.22;4538276;26;19960;-71
2024/04/12 10:58:05;;;;;;;;;;;;;;;23.88;27.53;101401.91;4538095;26;19936;-70
2024/04/12 11:00:07;;;;;;;;;;;;;;;23.85;27.24;101397.69;4538002;26;20019;-71
2024/04/12 11:02:10;;;;;;;;;;;;;;;23.29;27.86;101403.97;4537508;26;20378;-70
2024/04/12 11:04:14;;;;;;;;;;;;;;;23.39;27.79;101401.75;4538349;26;19936;-71
2024/04/12 11:06:18;;;;;;;;;;;;;;;23.49;27.79;101393.22;4536791;26;19935;-71
2024/04/12 11:08:20;;;;;;;;;;;;;;;23.31;28.17;101407.34;4537880;26;19934;-70
2024/04/12 11:10:24;;;;;;;;;;;;;;;23.38;28.12;101394.59;4536848;26;19928;-71
2024/04/12 11:12:39;;;;;;;;;;;;;;;23.45;28.24;101392.78;4538190;26;19996;-70
2024/04/12 11:14:50;;;;;;;;;;;;;;;23.45;28.45;101387.31;4537979;26;19928;-70
2024/04/12 11:31:07;;;;;;;;;;;;;;;23.13;28.95;101367.72;4536598;26;20049;-73
2024/04/12 11:33:12;;;;;;;;;;;;;;;23.29;29.21;101368.50;4537876;26;19928;-73
2024/04/12 11:35:15;;;;;;;;;;;;;;;22.98;29.03;101369.66;4537667;26;19959;-73
2024/04/12 11:37:16;;;;;;;;;;;;;;;23.12;29.27;101366.03;4537345;26;19995;-73
2024/04/12 11:39:23;;;;;;;;;;;;;;;23.16;29.37;101367.31;4536973;26;20320;-73